createdAt,value
2022-08-22T00:00:19.482Z,7.18
2022-08-22T00:02:52.695Z,8.70
2022-08-22T00:02:55.613Z,7.45
2022-08-22T00:03:00.023Z,16.35
2022-08-22T00:03:00.574Z,6.72
2022-08-22T00:03:01.248Z,7.95
2022-08-22T00:03:04.819Z,9.80
2022-08-22T00:03:06.994Z,7.28
2022-08-22T00:06:01.344Z,6.32
2022-08-22T00:08:39.485Z,6.30
2022-08-22T00:11:15.972Z,7.03
2022-08-22T00:14:01.476Z,8.35
2022-08-22T00:16:39.595Z,7.15
2022-08-22T00:19:18.076Z,6.90
2022-08-22T00:21:57.628Z,6.38
2022-08-22T00:24:31.832Z,6.10
2022-08-22T00:27:08.590Z,5.93
2022-08-22T00:29:43.422Z,7.07
2022-08-22T00:32:17.142Z,6.57
2022-08-22T00:34:54.472Z,7.53
2022-08-22T00:37:28.916Z,7.70
2022-08-22T00:40:09.578Z,6.38
2022-08-22T00:43:04.443Z,6.65
2022-08-22T00:46:03.261Z,5.85
2022-08-22T00:49:02.212Z,6.38
2022-08-22T00:51:51.765Z,6.22
2022-08-22T00:54:30.428Z,9.77
2022-08-22T00:57:31.063Z,7.82
2022-08-22T01:00:16.077Z,7.90
2022-08-22T01:03:19.981Z,8.05
2022-08-22T01:06:04.535Z,7.93
2022-08-22T01:08:43.129Z,8.55
2022-08-22T01:11:27.883Z,6.43
2022-08-22T01:14:13.184Z,6.70
2022-08-22T01:17:08.418Z,6.25
2022-08-22T01:20:11.003Z,8.80
2022-08-22T01:23:25.238Z,9.15
2022-08-22T01:26:31.244Z,7.32
2022-08-22T01:29:28.658Z,6.57
2022-08-22T01:32:42.702Z,8.55
2022-08-22T01:35:31.999Z,7.00
2022-08-22T01:38:34.793Z,9.45
2022-08-22T01:41:26.810Z,7.85
2022-08-22T01:44:21.523Z,7.88
2022-08-22T01:46:59.416Z,7.80
2022-08-22T01:49:38.050Z,9.13
2022-08-22T01:52:12.650Z,5.97
2022-08-22T01:54:51.889Z,10.98
2022-08-22T01:57:21.171Z,9.60
2022-08-22T01:59:53.394Z,7.28
2022-08-22T02:02:36.821Z,9.07
2022-08-22T02:05:12.239Z,6.93
2022-08-22T02:07:49.776Z,8.50
2022-08-22T02:10:24.576Z,7.70
2022-08-22T02:13:04.924Z,6.28
2022-08-22T02:15:47.961Z,8.45
2022-08-22T02:18:21.843Z,9.38
2022-08-22T02:21:01.651Z,8.32
2022-08-22T02:23:37.963Z,6.32
2022-08-22T02:26:10.517Z,6.35
2022-08-22T02:28:56.413Z,7.53
2022-08-22T02:31:38.276Z,10.27
2022-08-22T02:34:22.931Z,8.07
2022-08-22T02:36:58.253Z,8.93
2022-08-22T02:39:36.930Z,7.03
2022-08-22T02:42:18.273Z,8.05
2022-08-22T02:45:01.651Z,7.97
2022-08-22T02:47:37.134Z,7.07
2022-08-22T02:50:18.782Z,7.00
2022-08-22T02:52:58.394Z,6.03
2022-08-22T02:55:47.211Z,7.53
2022-08-22T02:58:24.304Z,7.93
2022-08-22T03:01:17.723Z,6.05
2022-08-22T03:03:48.351Z,7.93
2022-08-22T03:06:40.542Z,6.00
2022-08-22T03:09:23.111Z,6.78
2022-08-22T03:12:05.582Z,6.25
2022-08-22T03:14:44.401Z,8.55
2022-08-22T03:17:20.432Z,9.02
2022-08-22T03:20:01.339Z,8.00
2022-08-22T03:22:37.827Z,8.70
2022-08-22T03:25:15.563Z,6.20
2022-08-22T03:27:52.424Z,9.30
2022-08-22T03:30:24.445Z,7.53
2022-08-22T03:32:56.357Z,9.32
2022-08-22T03:35:40.145Z,7.00
2022-08-22T03:38:19.297Z,7.15
2022-08-22T03:41:09.725Z,5.50
2022-08-22T03:44:03.147Z,6.38
2022-08-22T03:46:46.444Z,9.07
2022-08-22T03:49:59.823Z,6.57
2022-08-22T03:53:18.970Z,10.82
2022-08-22T03:56:14.423Z,7.50
2022-08-22T03:59:16.334Z,10.15
2022-08-22T04:02:35.837Z,6.68
2022-08-22T04:05:40.754Z,9.30
2022-08-22T04:08:53.379Z,7.93
2022-08-22T04:12:00.872Z,6.95
2022-08-22T04:14:50.907Z,7.70
2022-08-22T04:17:55.554Z,7.65
2022-08-22T04:20:58.823Z,8.95
2022-08-22T04:23:54.690Z,7.13
2022-08-22T04:26:33.277Z,7.65
2022-08-22T04:29:08.999Z,6.60
2022-08-22T04:31:53.494Z,7.45
2022-08-22T04:34:27.659Z,7.93
2022-08-22T04:37:04.810Z,8.50
2022-08-22T04:39:39.815Z,6.93
2022-08-22T04:42:32.326Z,7.93
2022-08-22T04:45:07.367Z,8.07
2022-08-22T04:47:41.471Z,8.25
2022-08-22T04:50:23.558Z,8.38
2022-08-22T04:53:05.983Z,6.38
2022-08-22T04:55:55.412Z,7.88
2022-08-22T04:58:37.538Z,6.88
2022-08-22T05:01:16.833Z,10.38
2022-08-22T05:03:53.383Z,8.07
2022-08-22T05:06:28.601Z,7.68
2022-08-22T05:09:04.185Z,8.10
2022-08-22T05:11:35.769Z,9.60
2022-08-22T05:14:09.959Z,7.53
2022-08-22T05:16:43.009Z,8.80
2022-08-22T05:19:18.251Z,8.55
2022-08-22T05:21:51.625Z,8.00
2022-08-22T05:24:28.102Z,7.55
2022-08-22T05:27:00.694Z,7.07
2022-08-22T05:29:31.680Z,9.82
2022-08-22T05:32:05.610Z,7.78
2022-08-22T05:34:40.501Z,9.73
2022-08-22T05:37:15.324Z,9.68
2022-08-22T05:39:48.614Z,8.32
2022-08-22T05:42:23.213Z,11.95
2022-08-22T05:44:52.192Z,8.27
2022-08-22T05:47:24.033Z,9.13
2022-08-22T05:50:01.838Z,9.15
2022-08-22T05:52:43.363Z,9.60
2022-08-22T05:55:23.695Z,9.85
2022-08-22T05:58:11.834Z,8.52
2022-08-22T06:00:44.380Z,8.68
2022-08-22T06:03:19.606Z,9.10
2022-08-22T06:05:54.298Z,14.32
2022-08-22T06:08:25.948Z,9.88
2022-08-22T06:10:59.215Z,8.25
2022-08-22T06:13:34.986Z,10.80
2022-08-22T06:16:10.652Z,10.93
2022-08-22T06:18:41.955Z,9.75
2022-08-22T06:21:19.260Z,10.70
2022-08-22T06:23:51.936Z,10.95
2022-08-22T06:26:21.974Z,11.63
2022-08-22T06:28:55.058Z,11.57
2022-08-22T06:31:30.587Z,11.70
2022-08-22T06:34:05.274Z,12.88
2022-08-22T06:36:38.590Z,11.35
2022-08-22T06:39:16.678Z,10.23
2022-08-22T06:41:50.458Z,12.45
2022-08-22T06:44:23.461Z,10.90
2022-08-22T06:46:56.449Z,12.65
2022-08-22T06:49:27.042Z,12.70
2022-08-22T06:52:01.014Z,12.18
2022-08-22T06:54:36.193Z,11.05
2022-08-22T06:57:07.434Z,12.48
2022-08-22T06:59:39.404Z,11.85
2022-08-22T07:02:20.796Z,10.68
2022-08-22T07:04:50.386Z,13.63
2022-08-22T07:07:21.457Z,13.05
2022-08-22T07:09:55.541Z,12.10
2022-08-22T07:12:29.851Z,10.32
2022-08-22T07:15:02.892Z,11.57
2022-08-22T07:17:35.901Z,12.15
2022-08-22T07:20:23.953Z,12.98
2022-08-22T07:22:57.652Z,11.55
2022-08-22T07:25:27.090Z,12.00
2022-08-22T07:28:36.644Z,12.00
2022-08-22T07:31:16.875Z,11.55
2022-08-22T07:33:50.822Z,9.45
2022-08-22T07:36:31.416Z,10.18
2022-08-22T07:39:17.764Z,9.95
2022-08-22T07:42:10.718Z,11.15
2022-08-22T07:44:58.250Z,8.18
2022-08-22T07:47:34.213Z,9.30
2022-08-22T07:50:07.213Z,6.97
2022-08-22T07:52:41.902Z,9.75
2022-08-22T07:55:18.913Z,8.23
2022-08-22T07:57:53.833Z,7.75
2022-08-22T08:00:25.012Z,8.38
2022-08-22T08:02:58.203Z,7.07
2022-08-22T08:05:30.422Z,8.15
2022-08-22T08:08:01.036Z,10.80
2022-08-22T08:10:35.516Z,8.35
2022-08-22T08:13:12.646Z,5.95
2022-08-22T08:15:45.425Z,7.90
2022-08-22T08:18:19.464Z,7.05
2022-08-22T08:20:51.960Z,9.55
2022-08-22T08:23:23.809Z,5.43
2022-08-22T08:26:03.932Z,7.32
2022-08-22T08:28:34.787Z,8.43
2022-08-22T08:31:08.607Z,6.95
2022-08-22T08:33:41.278Z,7.10
2022-08-22T08:36:23.393Z,7.03
2022-08-22T08:38:58.582Z,8.50
2022-08-22T08:41:46.694Z,4.63
2022-08-22T08:44:34.165Z,4.65
2022-08-22T08:47:23.264Z,5.90
2022-08-22T08:50:11.725Z,5.60
2022-08-22T08:52:59.470Z,6.03
2022-08-22T08:55:43.658Z,6.32
2022-08-22T08:58:40.738Z,5.55
2022-08-22T09:01:34.574Z,7.22
2022-08-22T09:04:25.206Z,4.88
2022-08-22T09:07:25.946Z,6.43
2022-08-22T09:10:12.184Z,6.13
2022-08-22T09:13:19.676Z,4.13
2022-08-22T09:16:05.026Z,5.22
2022-08-22T09:19:28.212Z,6.38
2022-08-22T09:22:14.349Z,6.75
2022-08-22T09:25:12.614Z,6.28
2022-08-22T09:27:50.158Z,6.32
2022-08-22T09:30:27.551Z,4.55
2022-08-22T09:33:03.529Z,6.22
2022-08-22T09:35:41.129Z,6.60
2022-08-22T09:38:27.611Z,6.82
2022-08-22T09:41:06.293Z,3.90
2022-08-22T09:43:44.174Z,7.85
2022-08-22T09:46:29.465Z,3.92
2022-08-22T09:49:12.668Z,3.83
2022-08-22T09:51:46.337Z,4.63
2022-08-22T09:54:31.064Z,5.15
2022-08-22T09:57:09.489Z,4.63
2022-08-22T09:59:58.503Z,5.43
2022-08-22T10:02:34.520Z,3.75
2022-08-22T10:05:41.043Z,6.43
2022-08-22T10:08:26.594Z,5.22
2022-08-22T10:11:11.168Z,7.47
2022-08-22T10:13:57.332Z,6.85
2022-08-22T10:16:52.514Z,4.30
2022-08-22T10:19:28.536Z,3.80
2022-08-22T10:22:30.815Z,3.50
2022-08-22T10:25:09.303Z,2.95
2022-08-22T10:28:03.632Z,4.72
2022-08-22T10:30:39.654Z,7.10
2022-08-22T10:33:14.874Z,3.78
2022-08-22T10:35:59.997Z,3.25
2022-08-22T10:38:46.153Z,2.92
2022-08-22T10:41:28.157Z,2.70
2022-08-22T10:44:05.106Z,4.25
2022-08-22T10:46:39.529Z,3.58
2022-08-22T10:49:20.348Z,4.18
2022-08-22T10:51:59.972Z,3.28
2022-08-22T10:54:49.362Z,2.90
2022-08-22T10:57:37.393Z,4.35
2022-08-22T11:00:14.219Z,4.60
2022-08-22T11:02:53.607Z,3.70
2022-08-22T11:05:39.342Z,4.15
2022-08-22T11:08:20.463Z,3.90
2022-08-22T11:11:08.178Z,3.92
2022-08-22T11:13:43.308Z,2.88
2022-08-22T11:16:42.002Z,4.55
2022-08-22T11:19:44.916Z,5.25
2022-08-22T11:22:30.328Z,2.95
2022-08-22T11:25:35.827Z,4.22
2022-08-22T11:28:30.918Z,5.80
2022-08-22T11:31:07.742Z,5.90
2022-08-22T11:33:46.934Z,3.88
2022-08-22T11:36:31.082Z,5.40
2022-08-22T11:39:18.020Z,5.70
2022-08-22T11:41:56.208Z,4.72
2022-08-22T11:44:34.588Z,2.08
2022-08-22T11:47:24.805Z,2.63
2022-08-22T11:50:01.413Z,4.35
2022-08-22T11:52:52.021Z,5.57
2022-08-22T11:55:32.558Z,3.38
2022-08-22T11:58:16.961Z,2.72
2022-08-22T12:00:55.279Z,3.90
2022-08-22T12:03:51.031Z,4.65
2022-08-22T12:06:42.604Z,3.08
2022-08-22T12:09:31.872Z,4.10
2022-08-22T12:12:20.941Z,4.88
2022-08-22T12:14:58.268Z,2.55
2022-08-22T12:18:01.612Z,5.60
2022-08-22T12:21:00.046Z,4.38
2022-08-22T12:24:20.828Z,3.00
2022-08-22T12:27:00.563Z,3.05
2022-08-22T12:29:44.893Z,3.40
2022-08-22T12:32:50.758Z,4.93
2022-08-22T12:35:41.145Z,3.53
2022-08-22T12:38:37.750Z,4.70
2022-08-22T12:41:40.031Z,4.60
2022-08-22T12:44:30.087Z,2.83
2022-08-22T12:47:14.339Z,4.70
2022-08-22T12:50:16.588Z,2.88
2022-08-22T12:53:05.181Z,4.03
2022-08-22T12:55:56.088Z,2.83
2022-08-22T12:58:36.569Z,2.25
2022-08-22T13:01:09.219Z,5.78
2022-08-22T13:03:44.720Z,3.70
2022-08-22T13:06:51.017Z,3.67
2022-08-22T13:09:30.682Z,4.70
2022-08-22T13:12:05.598Z,2.47
2022-08-22T13:14:36.828Z,2.33
2022-08-22T13:17:24.034Z,3.67
2022-08-22T13:20:08.615Z,3.95
2022-08-22T13:22:45.620Z,2.40
2022-08-22T13:25:26.165Z,4.00
2022-08-22T13:27:59.297Z,4.25
2022-08-22T13:30:33.434Z,2.63
2022-08-22T13:33:10.111Z,3.05
2022-08-22T13:35:44.532Z,4.25
2022-08-22T13:38:25.597Z,1.98
2022-08-22T13:40:58.788Z,3.08
2022-08-22T13:43:33.846Z,3.05
2022-08-22T13:46:05.389Z,3.10
2022-08-22T13:48:49.891Z,3.95
2022-08-22T13:51:26.301Z,4.75
2022-08-22T13:54:03.307Z,3.95
2022-08-22T13:56:50.463Z,2.72
2022-08-22T13:59:49.711Z,3.72
2022-08-22T14:02:35.036Z,3.88
2022-08-22T14:05:09.921Z,3.13
2022-08-22T14:07:44.794Z,3.60
2022-08-22T14:10:21.335Z,4.45
2022-08-22T14:13:20.423Z,3.13
2022-08-22T14:15:49.445Z,3.45
2022-08-22T14:18:31.718Z,4.38
2022-08-22T14:21:33.449Z,5.07
2022-08-22T14:24:18.930Z,2.45
2022-08-22T14:26:54.555Z,3.90
2022-08-22T14:29:34.855Z,3.55
2022-08-22T14:32:14.725Z,4.72
2022-08-22T14:34:49.473Z,3.00
2022-08-22T14:37:23.068Z,2.53
2022-08-22T14:39:56.747Z,4.47
2022-08-22T14:42:29.659Z,1.80
2022-08-22T14:45:06.653Z,2.83
2022-08-22T14:48:14.445Z,4.18
2022-08-22T14:50:39.865Z,3.20
2022-08-22T14:53:13.687Z,4.13
2022-08-22T14:55:43.573Z,4.53
2022-08-22T14:58:26.468Z,1.83
2022-08-22T15:01:08.020Z,2.70
2022-08-22T15:03:40.931Z,4.75
2022-08-22T15:06:14.396Z,2.70
2022-08-22T15:08:51.309Z,2.35
2022-08-22T15:11:25.204Z,3.65
2022-08-22T15:14:01.424Z,3.60
2022-08-22T15:16:36.122Z,4.85
2022-08-22T15:19:22.722Z,3.08
2022-08-22T15:21:52.138Z,3.13
2022-08-22T15:24:22.564Z,2.92
2022-08-22T15:26:55.514Z,2.75
2022-08-22T15:29:28.026Z,2.95
2022-08-22T15:32:03.292Z,3.70
2022-08-22T15:34:37.887Z,2.33
2022-08-22T15:37:32.399Z,2.50
2022-08-22T15:40:11.664Z,2.80
2022-08-22T15:42:45.168Z,3.78
2022-08-22T15:45:33.653Z,5.00
2022-08-22T15:48:08.761Z,4.43
2022-08-22T15:50:41.871Z,6.05
2022-08-22T15:53:16.065Z,4.88
2022-08-22T15:56:19.565Z,2.53
2022-08-22T15:58:51.456Z,2.08
2022-08-22T16:01:23.149Z,3.42
2022-08-22T16:04:01.119Z,2.35
2022-08-22T16:06:46.646Z,2.75
2022-08-22T16:09:40.374Z,3.55
2022-08-22T16:12:13.626Z,2.80
2022-08-22T16:14:50.739Z,3.47
2022-08-22T16:17:42.941Z,4.53
2022-08-22T16:20:54.834Z,3.38
2022-08-22T16:23:24.993Z,5.78
2022-08-22T16:26:15.375Z,3.17
2022-08-22T16:28:58.218Z,2.28
2022-08-22T16:31:35.979Z,3.70
2022-08-22T16:34:39.388Z,3.00
2022-08-22T16:37:31.643Z,6.40
2022-08-22T16:40:19.514Z,3.45
2022-08-22T16:42:52.334Z,4.05
2022-08-22T16:45:33.887Z,4.22
2022-08-22T16:48:25.819Z,4.38
2022-08-22T16:51:18.454Z,6.53
2022-08-22T16:54:11.081Z,2.80
2022-08-22T16:57:05.585Z,2.85
2022-08-22T16:59:50.493Z,4.53
2022-08-22T17:02:43.269Z,5.60
2022-08-22T17:05:32.283Z,4.43
2022-08-22T17:08:17.427Z,4.28
2022-08-22T17:11:00.151Z,4.25
2022-08-22T17:13:47.897Z,2.92
2022-08-22T17:16:32.787Z,2.00
2022-08-22T17:19:22.284Z,6.03
2022-08-22T17:21:55.959Z,6.60
2022-08-22T17:24:34.467Z,7.20
2022-08-22T17:27:13.293Z,7.55
2022-08-22T17:30:01.046Z,5.72
2022-08-22T17:32:38.184Z,6.53
2022-08-22T17:35:18.002Z,3.78
2022-08-22T17:37:58.496Z,5.25
2022-08-22T17:40:37.693Z,3.78
2022-08-22T17:43:21.273Z,4.25
2022-08-22T17:46:16.538Z,3.42
2022-08-22T17:48:51.640Z,4.35
2022-08-22T17:51:28.799Z,3.53
2022-08-22T17:54:02.673Z,2.90
2022-08-22T17:56:40.826Z,5.20
2022-08-22T17:59:16.047Z,4.60
2022-08-22T18:01:54.555Z,5.15
2022-08-22T18:04:32.420Z,6.30
2022-08-22T18:07:24.283Z,4.20
2022-08-22T18:09:59.207Z,3.17
2022-08-22T18:12:34.462Z,5.25
2022-08-22T18:15:09.482Z,2.80
2022-08-22T18:17:44.351Z,2.70
2022-08-22T18:20:18.592Z,4.07
2022-08-22T18:22:51.278Z,3.55
2022-08-22T18:25:41.772Z,6.00
2022-08-22T18:28:15.535Z,3.88
2022-08-22T18:30:59.474Z,3.97
2022-08-22T18:33:35.368Z,5.72
2022-08-22T18:36:12.752Z,4.40
2022-08-22T18:38:50.612Z,3.20
2022-08-22T18:41:27.347Z,10.30
2022-08-22T18:43:57.469Z,8.57
2022-08-22T18:46:41.428Z,5.55
2022-08-22T18:49:29.909Z,5.93
2022-08-22T18:52:21.850Z,5.20
2022-08-22T18:55:13.182Z,4.55
2022-08-22T18:58:03.520Z,6.57
2022-08-22T19:00:49.099Z,7.88
2022-08-22T19:03:31.865Z,10.32
2022-08-22T19:06:28.348Z,9.65
2022-08-22T19:09:24.244Z,8.00
2022-08-22T19:12:02.908Z,5.15
2022-08-22T19:14:51.094Z,10.65
2022-08-22T19:17:43.960Z,15.75
2022-08-22T19:20:46.200Z,16.83
2022-08-22T19:23:47.444Z,19.75
2022-08-22T19:26:34.557Z,11.70
2022-08-22T19:29:10.655Z,10.63
2022-08-22T19:31:48.975Z,14.25
2022-08-22T19:34:36.206Z,11.32
2022-08-22T19:37:32.435Z,8.18
2022-08-22T19:40:07.291Z,9.52
2022-08-22T19:42:39.030Z,6.25
2022-08-22T19:45:19.581Z,4.05
2022-08-22T19:47:57.839Z,6.38
2022-08-22T19:50:31.617Z,6.47
2022-08-22T19:53:18.408Z,7.70
2022-08-22T19:56:18.249Z,3.75
2022-08-22T19:58:57.243Z,6.53
2022-08-22T20:01:46.760Z,6.13
2022-08-22T20:04:42.335Z,6.07
2022-08-22T20:07:23.695Z,7.50
2022-08-22T20:10:02.103Z,6.50
2022-08-22T20:12:39.625Z,9.82
2022-08-22T20:15:20.144Z,6.80
2022-08-22T20:20:57.782Z,6.55
2022-08-22T20:23:30.510Z,5.63
2022-08-22T20:26:07.843Z,5.28
2022-08-22T20:28:48.740Z,5.97
2022-08-22T20:31:23.106Z,7.47
2022-08-22T20:33:56.545Z,10.73
2022-08-22T20:36:27.661Z,10.75
2022-08-22T20:39:02.420Z,8.68
2022-08-22T20:41:35.537Z,7.60
2022-08-22T20:44:12.507Z,10.20
2022-08-22T20:46:55.690Z,7.35
2022-08-22T20:49:29.411Z,7.85
2022-08-22T20:52:00.875Z,6.97
2022-08-22T20:54:31.922Z,6.20
2022-08-22T20:57:02.672Z,5.10
2022-08-22T20:59:36.961Z,5.55
2022-08-22T21:02:14.600Z,5.70
2022-08-22T21:04:52.800Z,3.85
2022-08-22T21:07:24.527Z,5.38
2022-08-22T21:10:22.104Z,4.60
2022-08-22T21:13:10.726Z,5.60
2022-08-22T21:15:42.928Z,4.40
2022-08-22T21:18:13.643Z,4.70
2022-08-22T21:20:42.676Z,7.30
2022-08-22T21:23:15.560Z,4.20
2022-08-22T21:25:59.231Z,6.45
2022-08-22T21:28:31.189Z,4.85
2022-08-22T21:31:08.411Z,5.05
2022-08-22T21:33:41.525Z,6.10
2022-08-22T21:36:13.349Z,5.45
2022-08-22T21:38:49.087Z,4.60
2022-08-22T21:41:26.720Z,4.97
2022-08-22T21:43:55.991Z,4.18
2022-08-22T21:46:29.884Z,5.68
2022-08-22T21:49:03.080Z,6.38
2022-08-22T21:51:41.915Z,4.90
2022-08-22T21:54:41.164Z,3.90
2022-08-22T21:57:24.313Z,5.20
2022-08-22T21:59:59.785Z,4.25
2022-08-22T22:02:37.002Z,5.88
2022-08-22T22:05:09.310Z,5.63
2022-08-22T22:07:39.361Z,5.75
2022-08-22T22:10:10.863Z,5.43
2022-08-22T22:12:41.387Z,7.13
2022-08-22T22:15:13.269Z,4.22
2022-08-22T22:17:43.446Z,6.80
2022-08-22T22:20:15.222Z,5.20
2022-08-22T22:22:46.536Z,5.93
2022-08-22T22:25:41.225Z,6.10
2022-08-22T22:28:09.162Z,8.90
2022-08-22T22:30:38.019Z,8.05
2022-08-22T22:33:08.101Z,4.63
2022-08-22T22:35:38.915Z,4.22
2022-08-22T22:38:08.405Z,5.72
2022-08-22T22:40:37.513Z,4.57
2022-08-22T22:43:06.412Z,4.80
2022-08-22T22:45:35.114Z,5.25
2022-08-22T22:48:04.576Z,4.72
2022-08-22T22:50:38.009Z,4.95
2022-08-22T22:53:06.690Z,5.72
2022-08-22T22:55:41.676Z,5.22
2022-08-22T22:58:10.847Z,8.32
2022-08-22T23:00:39.580Z,6.15
2022-08-22T23:03:08.356Z,5.07
2022-08-22T23:05:38.368Z,5.75
2022-08-22T23:08:07.056Z,7.15
2022-08-22T23:10:35.680Z,5.40
2022-08-22T23:13:06.757Z,6.07
2022-08-22T23:15:35.460Z,5.05
2022-08-22T23:18:04.351Z,8.40
2022-08-22T23:20:33.029Z,6.00
2022-08-22T23:23:03.145Z,5.72
2022-08-22T23:25:31.890Z,7.70
2022-08-22T23:28:00.674Z,5.63
2022-08-22T23:30:30.298Z,9.07
2022-08-22T23:32:58.981Z,6.93
2022-08-22T23:35:27.653Z,7.85
2022-08-22T23:37:56.532Z,4.80
2022-08-22T23:40:26.664Z,6.00
2022-08-22T23:42:56.898Z,7.22
2022-08-22T23:45:26.605Z,10.00
2022-08-22T23:47:55.356Z,6.45
2022-08-22T23:50:24.012Z,6.07
2022-08-22T23:52:52.680Z,6.95
2022-08-22T23:55:21.398Z,5.30
2022-08-22T23:57:51.393Z,6.40
